Time;durP1;ratioP1;P1;durP2;ratioP2;P2;SDS_P1;SDS_P2;PMS_P1;PMS_P2;Temp;Humidity;BMP_temperature;BMP_pressure;BME280_temperature;BME280_humidity;BME280_pressure;Samples;Min_cycle;Max_cycle;Signal;HPM_P1;HPM_P2
2022/03/29 00:01:42;;;;;;;;;;;6.50;99.90;;;;;;5158260;27;19972;-69
2022/03/29 00:04:07;;;;;;;;;;;6.50;99.90;;;;;;5139164;27;19967;-69
2022/03/29 00:06:33;;;;;;;;;;;6.50;99.90;;;;;;5157993;27;19930;-69
2022/03/29 00:08:58;;;;;;;;;;;6.70;99.90;;;;;;5157999;27;19924;-69
2022/03/29 00:11:24;;;;;;;;;;;7.60;99.90;;;;;;5158161;27;19923;-70
2022/03/29 00:13:49;;;;;;;;;;;7.20;99.90;;;;;;5158035;27;20014;-68
2022/03/29 00:16:15;;;;;;;;;;;7.00;99.90;;;;;;5157969;27;19927;-69
2022/03/29 00:18:40;;;;;;;;;;;6.60;99.90;;;;;;5157831;27;19923;-69
2022/03/29 00:21:06;;;;;;;;;;;6.80;99.90;;;;;;5157827;27;20015;-68
2022/03/29 00:23:32;;;;;;;;;;;7.00;99.90;;;;;;5157751;27;19972;-70
2022/03/29 00:25:57;;;;;;;;;;;7.00;99.90;;;;;;5157837;27;20416;-71
2022/03/29 00:28:23;;;;;;;;;;;6.80;99.90;;;;;;5157863;27;19923;-69
2022/03/29 00:30:48;;;;;;;;;;;7.00;99.90;;;;;;5157681;27;20400;-69
2022/03/29 00:33:14;;;;;;;;;;;7.30;99.90;;;;;;5157657;27;19932;-69
2022/03/29 00:35:39;;;;;;;;;;;6.60;99.90;;;;;;5157494;27;19923;-69
2022/03/29 00:38:05;;;;;;;;;;;7.20;99.90;;;;;;5157521;27;19976;-68
2022/03/29 00:40:31;;;;;;;;;;;6.60;99.90;;;;;;5157275;27;19929;-68
2022/03/29 00:42:57;;;;;;;;;;;6.50;99.90;;;;;;5157582;27;20017;-68
2022/03/29 00:45:23;;;;;;;;;;;7.10;99.90;;;;;;5156826;27;19923;-69
2022/03/29 00:47:49;;;;;;;;;;;6.50;99.90;;;;;;5157384;27;19923;-68
2022/03/29 00:50:15;;;;;;;;;;;6.50;99.90;;;;;;5156307;27;19949;-69
2022/03/29 00:52:40;;;;;;;;;;;6.60;99.90;;;;;;5157098;27;19923;-69
2022/03/29 00:55:07;;;;;;;;;;;6.90;99.90;;;;;;5157026;27;19987;-70
2022/03/29 00:57:34;;;;;;;;;;;6.60;99.90;;;;;;5157525;27;19930;-68
2022/03/29 01:00:00;;;;;;;;;;;6.60;99.90;;;;;;5157224;27;19927;-71
2022/03/29 01:02:25;;;;;;;;;;;6.80;99.90;;;;;;5157051;27;20010;-69
2022/03/29 01:04:51;;;;;;;;;;;7.80;99.90;;;;;;5157059;27;20377;-69
2022/03/29 01:07:17;;;;;;;;;;;6.60;99.90;;;;;;5156825;27;19930;-68
2022/03/29 01:09:42;;;;;;;;;;;7.60;99.90;;;;;;5156843;27;20357;-68
2022/03/29 01:12:08;;;;;;;;;;;6.70;99.90;;;;;;5173273;27;20297;-69
2022/03/29 01:14:34;;;;;;;;;;;6.70;99.90;;;;;;5156902;27;20374;-68
2022/03/29 01:19:45;;;;;;;;;;;6.20;99.90;;;;;;5156697;27;20012;-71
2022/03/29 01:22:10;;;;;;;;;;;6.70;99.90;;;;;;5156468;27;19923;-70
2022/03/29 01:24:37;;;;;;;;;;;7.90;99.90;;;;;;5156481;27;19923;-69
2022/03/29 01:27:04;;;;;;;;;;;6.80;99.90;;;;;;5156588;27;19923;-69
2022/03/29 01:29:30;;;;;;;;;;;6.80;99.90;;;;;;5156602;27;20378;-69
2022/03/29 01:31:56;;;;;;;;;;;6.80;99.90;;;;;;5156531;27;19930;-68
2022/03/29 01:34:22;;;;;;;;;;;6.90;99.90;;;;;;5156416;27;19930;-69
2022/03/29 01:36:47;;;;;;;;;;;6.80;99.90;;;;;;5156200;27;19922;-69
2022/03/29 01:39:13;;;;;;;;;;;6.80;99.90;;;;;;5156198;27;20019;-69
2022/03/29 01:41:39;;;;;;;;;;;7.40;99.90;;;;;;5156350;27;20374;-69
2022/03/29 01:44:08;;;;;;;;;;;7.30;99.90;;;;;;5156398;27;20378;-68
2022/03/29 01:46:34;;;;;;;;;;;6.80;99.90;;;;;;5156299;27;19969;-68
2022/03/29 01:48:59;;;;;;;;;;;6.80;99.90;;;;;;5156124;27;19923;-68
2022/03/29 01:51:25;;;;;;;;;;;7.30;99.90;;;;;;5156071;27;20328;-69
2022/03/29 01:53:55;;;;;;;;;;;7.20;99.90;;;;;;5155803;27;19929;-70
2022/03/29 01:56:20;;;;;;;;;;;6.90;99.90;;;;;;5137704;27;20013;-68
2022/03/29 01:58:46;;;;;;;;;;;6.80;99.90;;;;;;5156120;27;20364;-69
2022/03/29 02:01:12;;;;;;;;;;;7.60;99.90;;;;;;5155866;27;20377;-68
2022/03/29 02:03:38;;;;;;;;;;;6.80;99.90;;;;;;5120297;27;19974;-68
2022/03/29 02:06:04;;;;;;;;;;;6.90;99.90;;;;;;5114427;28;19973;-69
2022/03/29 02:08:29;;;;;;;;;;;7.20;99.90;;;;;;5114438;28;19924;-68
2022/03/29 02:10:55;;;;;;;;;;;6.80;99.90;;;;;;5113760;28;19935;-68
2022/03/29 02:13:21;;;;;;;;;;;7.50;99.90;;;;;;5114598;28;19947;-70
2022/03/29 02:15:47;;;;;;;;;;;6.80;99.90;;;;;;5114644;28;19924;-70
2022/03/29 02:18:12;;;;;;;;;;;6.70;99.90;;;;;;5096559;28;20367;-69
2022/03/29 02:20:38;;;;;;;;;;;7.70;99.90;;;;;;5096144;28;19928;-69
2022/03/29 02:23:06;;;;;;;;;;;6.70;99.90;;;;;;5096039;28;19963;-68
2022/03/29 02:25:32;;;;;;;;;;;6.70;99.90;;;;;;5114096;28;20023;-70
2022/03/29 02:27:57;;;;;;;;;;;6.60;99.90;;;;;;5114382;28;20386;-68
2022/03/29 02:30:23;;;;;;;;;;;6.60;99.90;;;;;;5114185;28;19977;-68
2022/03/29 02:32:48;;;;;;;;;;;5.40;99.90;;;;;;5096066;28;19924;-69
2022/03/29 02:35:14;;;;;;;;;;;6.60;99.90;;;;;;5114037;28;19924;-68
2022/03/29 02:37:40;;;;;;;;;;;7.50;99.90;;;;;;5114112;28;19924;-69
2022/03/29 02:40:06;;;;;;;;;;;6.70;99.90;;;;;;5114038;28;20286;-69
2022/03/29 02:42:32;;;;;;;;;;;6.50;99.90;;;;;;5096316;28;19924;-69
2022/03/29 02:44:58;;;;;;;;;;;6.50;99.90;;;;;;5114265;28;20442;-68
2022/03/29 02:47:23;;;;;;;;;;;6.50;99.90;;;;;;5114202;28;19924;-70
2022/03/29 02:49:49;;;;;;;;;;;6.50;99.90;;;;;;5114036;28;19977;-69
2022/03/29 02:52:15;;;;;;;;;;;7.00;99.90;;;;;;5114304;28;20286;-69
2022/03/29 02:54:41;;;;;;;;;;;6.50;99.90;;;;;;5113957;28;19923;-69
2022/03/29 02:57:07;;;;;;;;;;;7.50;99.90;;;;;;5113742;28;19927;-69
2022/03/29 02:59:32;;;;;;;;;;;6.50;99.90;;;;;;5114043;28;19923;-68
2022/03/29 03:01:58;;;;;;;;;;;6.50;99.90;;;;;;5114228;28;19924;-69
2022/03/29 03:04:24;;;;;;;;;;;6.50;99.90;;;;;;5113835;28;20387;-69
2022/03/29 03:06:49;;;;;;;;;;;6.50;99.90;;;;;;5095568;28;19923;-69
2022/03/29 03:09:15;;;;;;;;;;;6.50;99.90;;;;;;5113882;28;19934;-69
2022/03/29 03:11:40;;;;;;;;;;;6.50;99.90;;;;;;5113659;28;19986;-69
2022/03/29 03:14:06;;;;;;;;;;;6.50;99.90;;;;;;5117850;28;19931;-69
2022/03/29 03:16:31;;;;;;;;;;;7.00;99.90;;;;;;5117956;28;19924;-69
2022/03/29 03:18:57;;;;;;;;;;;6.50;99.90;;;;;;5117808;28;20374;-68
2022/03/29 03:21:23;;;;;;;;;;;6.50;99.90;;;;;;5099697;28;19975;-69
2022/03/29 03:23:48;;;;;;;;;;;6.60;99.90;;;;;;5117676;28;20294;-69
2022/03/29 03:26:14;;;;;;;;;;;6.80;99.90;;;;;;5117483;28;19974;-68
2022/03/29 03:28:39;;;;;;;;;;;6.60;99.90;;;;;;5117492;28;20078;-70
2022/03/29 03:31:05;;;;;;;;;;;6.50;99.90;;;;;;5117651;28;20344;-68
2022/03/29 03:33:30;;;;;;;;;;;6.50;99.90;;;;;;5117306;28;19930;-68
2022/03/29 03:35:56;;;;;;;;;;;6.40;99.90;;;;;;5117590;28;20374;-71
2022/03/29 03:38:22;;;;;;;;;;;6.40;99.90;;;;;;5099280;28;19946;-69
2022/03/29 03:40:47;;;;;;;;;;;6.40;99.90;;;;;;5117282;28;19986;-69
2022/03/29 03:43:13;;;;;;;;;;;7.80;99.90;;;;;;5117179;28;20028;-70
2022/03/29 03:45:39;;;;;;;;;;;6.40;99.90;;;;;;5099551;28;19924;-70
2022/03/29 03:48:04;;;;;;;;;;;5.50;99.90;;;;;;5117434;28;19924;-69
2022/03/29 03:50:30;;;;;;;;;;;6.40;99.90;;;;;;5117215;28;20018;-68
2022/03/29 03:52:56;;;;;;;;;;;7.60;99.90;;;;;;5117054;28;19982;-69
2022/03/29 03:55:22;;;;;;;;;;;6.40;99.90;;;;;;5117028;28;19924;-69
2022/03/29 03:57:48;;;;;;;;;;;6.40;99.90;;;;;;5116702;28;19924;-68
2022/03/29 04:00:14;;;;;;;;;;;6.40;99.90;;;;;;5099131;28;20026;-68
2022/03/29 04:02:40;;;;;;;;;;;6.40;99.90;;;;;;5098892;28;20014;-69
2022/03/29 04:05:12;;;;;;;;;;;6.70;99.90;;;;;;5098889;28;19924;-69
2022/03/29 04:07:38;;;;;;;;;;;6.40;99.90;;;;;;5116822;28;19984;-70
2022/03/29 04:10:03;;;;;;;;;;;6.90;99.90;;;;;;5098621;28;20389;-69
2022/03/29 04:12:29;;;;;;;;;;;6.40;99.90;;;;;;5116594;28;20294;-69
2022/03/29 04:14:54;;;;;;;;;;;6.50;99.90;;;;;;5098785;28;19924;-70
2022/03/29 04:17:20;;;;;;;;;;;6.40;99.90;;;;;;5116773;28;20314;-68
2022/03/29 04:19:45;;;;;;;;;;;5.00;99.90;;;;;;5098559;28;19924;-69
2022/03/29 04:22:11;;;;;;;;;;;7.20;99.90;;;;;;5116522;28;20007;-68
2022/03/29 04:24:37;;;;;;;;;;;7.50;99.90;;;;;;5116493;28;19931;-71
2022/03/29 04:27:02;;;;;;;;;;;6.50;99.90;;;;;;5098422;28;19923;-70
2022/03/29 04:29:28;;;;;;;;;;;6.60;99.90;;;;;;5098791;28;19967;-68
2022/03/29 04:31:54;;;;;;;;;;;6.60;99.90;;;;;;5116476;28;20297;-69
2022/03/29 04:34:19;;;;;;;;;;;6.60;99.90;;;;;;5116462;28;19924;-69
2022/03/29 04:36:45;;;;;;;;;;;7.20;99.90;;;;;;5116294;28;19927;-69
2022/03/29 04:39:10;;;;;;;;;;;7.10;99.90;;;;;;5098408;28;20405;-69
2022/03/29 04:41:36;;;;;;;;;;;7.30;99.90;;;;;;5116124;28;20351;-69
2022/03/29 04:44:01;;;;;;;;;;;7.20;99.90;;;;;;5097918;28;19931;-69
2022/03/29 04:46:27;;;;;;;;;;;7.50;99.90;;;;;;5097630;28;19924;-69
2022/03/29 04:48:53;;;;;;;;;;;6.60;99.90;;;;;;5116058;28;19930;-69
2022/03/29 04:51:18;;;;;;;;;;;7.20;99.90;;;;;;5116278;28;20378;-67
2022/03/29 04:53:44;;;;;;;;;;;7.50;99.90;;;;;;5115972;28;19924;-68
2022/03/29 04:56:10;;;;;;;;;;;6.90;99.90;;;;;;5115739;28;19924;-68
2022/03/29 04:58:35;;;;;;;;;;;7.20;99.90;;;;;;5097562;28;19934;-68
2022/03/29 05:01:01;;;;;;;;;;;6.90;99.90;;;;;;5115722;28;20011;-68
2022/03/29 05:03:26;;;;;;;;;;;6.60;99.90;;;;;;5107164;27;19933;-69
2022/03/29 05:05:52;;;;;;;;;;;7.00;99.90;;;;;;5117904;27;20310;-69
2022/03/29 05:08:17;;;;;;;;;;;7.10;99.90;;;;;;5136313;27;19924;-69
2022/03/29 05:10:43;;;;;;;;;;;6.70;99.90;;;;;;5136287;27;19982;-69
2022/03/29 05:13:09;;;;;;;;;;;6.90;99.90;;;;;;5118335;27;20370;-69
2022/03/29 05:15:35;;;;;;;;;;;6.70;99.90;;;;;;5135927;27;20018;-70
2022/03/29 05:18:00;;;;;;;;;;;6.60;99.90;;;;;;5136163;27;20337;-68
2022/03/29 05:20:26;;;;;;;;;;;6.60;99.90;;;;;;5117810;27;19923;-68
2022/03/29 05:22:52;;;;;;;;;;;6.60;99.90;;;;;;5135965;27;20286;-69
2022/03/29 05:25:19;;;;;;;;;;;6.70;99.90;;;;;;5135933;27;19923;-69
2022/03/29 05:27:45;;;;;;;;;;;6.60;99.90;;;;;;5117731;27;19927;-69
2022/03/29 05:30:11;;;;;;;;;;;6.90;99.90;;;;;;5135692;27;19975;-68
2022/03/29 05:32:37;;;;;;;;;;;6.60;99.90;;;;;;5117870;27;19927;-69
2022/03/29 05:35:03;;;;;;;;;;;5.90;99.90;;;;;;5135389;27;19923;-68
2022/03/29 05:37:29;;;;;;;;;;;6.60;99.90;;;;;;5135626;27;20339;-70
2022/03/29 05:39:54;;;;;;;;;;;6.90;99.90;;;;;;5117342;27;19923;-68
2022/03/29 05:42:21;;;;;;;;;;;6.60;99.90;;;;;;5135529;27;19924;-68
2022/03/29 05:44:46;;;;;;;;;;;6.60;99.90;;;;;;5117051;27;20465;-69
2022/03/29 05:49:57;;;;;;;;;;;6.00;99.90;;;;;;5135477;27;20014;-70
2022/03/29 05:52:23;;;;;;;;;;;6.80;99.90;;;;;;5135385;27;19927;-69
2022/03/29 05:54:49;;;;;;;;;;;7.60;99.90;;;;;;5135261;27;20374;-68
2022/03/29 05:57:15;;;;;;;;;;;7.70;99.90;;;;;;5135168;27;19930;-69
2022/03/29 05:59:41;;;;;;;;;;;6.90;99.90;;;;;;5135116;27;20415;-69
2022/03/29 06:02:08;;;;;;;;;;;6.60;99.90;;;;;;5135334;27;20018;-69
2022/03/29 06:04:34;;;;;;;;;;;6.60;99.90;;;;;;5115989;27;20375;-69
2022/03/29 06:07:00;;;;;;;;;;;6.60;99.90;;;;;;5114501;28;19927;-70
2022/03/29 06:09:25;;;;;;;;;;;6.60;99.90;;;;;;5114464;28;20409;-69
2022/03/29 06:11:51;;;;;;;;;;;7.80;99.90;;;;;;5114459;28;19924;-68
2022/03/29 06:14:17;;;;;;;;;;;7.50;99.90;;;;;;5096569;28;19923;-68
2022/03/29 06:16:42;;;;;;;;;;;6.60;99.90;;;;;;5114666;28;20359;-69
2022/03/29 06:19:11;;;;;;;;;;;6.70;99.90;;;;;;5114754;28;19928;-68
2022/03/29 06:21:37;;;;;;;;;;;6.60;99.90;;;;;;5114521;28;19924;-69
2022/03/29 06:24:04;;;;;;;;;;;7.00;99.90;;;;;;5114434;28;19924;-69
2022/03/29 06:26:30;;;;;;;;;;;6.60;99.90;;;;;;5095396;28;19983;-68
2022/03/29 06:28:56;;;;;;;;;;;6.60;99.90;;;;;;5113884;28;20374;-69
2022/03/29 06:31:22;;;;;;;;;;;6.60;99.90;;;;;;5095339;28;20337;-70
2022/03/29 06:33:47;;;;;;;;;;;6.70;99.90;;;;;;5113845;28;19924;-70
2022/03/29 06:36:13;;;;;;;;;;;6.70;99.90;;;;;;5095881;28;19931;-69
2022/03/29 06:38:39;;;;;;;;;;;6.70;99.90;;;;;;5095611;28;19969;-69
2022/03/29 06:41:05;;;;;;;;;;;6.70;99.90;;;;;;5093879;28;19931;-69
2022/03/29 06:43:30;;;;;;;;;;;6.70;99.90;;;;;;5113913;28;19975;-70
2022/03/29 06:45:56;;;;;;;;;;;6.70;99.90;;;;;;5079114;28;19931;-68
2022/03/29 06:48:23;;;;;;;;;;;6.70;99.90;;;;;;5117043;28;19924;-70
2022/03/29 06:50:48;;;;;;;;;;;6.70;99.90;;;;;;5118221;28;19931;-69
2022/03/29 06:53:14;;;;;;;;;;;6.70;99.90;;;;;;5100266;28;20291;-69
2022/03/29 06:55:39;;;;;;;;;;;7.50;99.90;;;;;;5118219;28;19931;-69
2022/03/29 06:58:05;;;;;;;;;;;6.70;99.90;;;;;;5117858;28;19932;-69
2022/03/29 07:00:31;;;;;;;;;;;6.70;99.90;;;;;;5117978;28;20023;-68
2022/03/29 07:02:56;;;;;;;;;;;6.70;99.90;;;;;;5118154;27;19923;-69
2022/03/29 07:05:22;;;;;;;;;;;6.80;99.90;;;;;;5117898;28;20014;-69
2022/03/29 07:07:47;;;;;;;;;;;6.70;99.90;;;;;;5117887;28;19928;-69
2022/03/29 07:12:59;;;;;;;;;;;6.80;99.90;;;;;;5117693;28;19930;-70
2022/03/29 07:15:25;;;;;;;;;;;6.80;99.90;;;;;;5099672;28;19938;-68
2022/03/29 07:17:51;;;;;;;;;;;6.80;99.90;;;;;;5100032;28;20168;-68
2022/03/29 07:20:19;;;;;;;;;;;6.80;99.90;;;;;;5099524;28;20325;-69
2022/03/29 07:22:45;;;;;;;;;;;7.20;99.90;;;;;;5117554;28;20378;-69
2022/03/29 07:25:11;;;;;;;;;;;7.20;99.90;;;;;;5117643;28;19924;-68
2022/03/29 07:27:36;;;;;;;;;;;6.90;99.90;;;;;;5117316;28;19931;-69
2022/03/29 07:30:03;;;;;;;;;;;7.70;99.90;;;;;;5117490;28;19931;-69
2022/03/29 07:32:29;;;;;;;;;;;6.90;99.90;;;;;;5099496;28;19928;-69
2022/03/29 07:34:55;;;;;;;;;;;7.00;99.90;;;;;;5117395;28;19934;-69
2022/03/29 07:37:21;;;;;;;;;;;7.90;99.90;;;;;;5117347;28;19930;-70
2022/03/29 07:39:48;;;;;;;;;;;7.00;99.90;;;;;;5117319;28;19924;-68
2022/03/29 07:42:14;;;;;;;;;;;7.30;99.90;;;;;;5117269;28;19924;-69
2022/03/29 07:44:39;;;;;;;;;;;7.00;99.90;;;;;;5117159;28;19931;-68
2022/03/29 07:47:05;;;;;;;;;;;8.00;99.90;;;;;;5117437;28;19924;-68
2022/03/29 07:49:31;;;;;;;;;;;7.10;99.90;;;;;;5117201;28;19923;-69
2022/03/29 07:51:56;;;;;;;;;;;7.20;99.90;;;;;;5117343;28;19924;-70
2022/03/29 07:54:22;;;;;;;;;;;7.20;99.90;;;;;;5117019;28;19924;-70
2022/03/29 07:56:47;;;;;;;;;;;7.70;99.90;;;;;;5116769;28;19923;-69
2022/03/29 07:59:13;;;;;;;;;;;7.20;99.90;;;;;;5116463;28;19928;-69
2022/03/29 08:01:38;;;;;;;;;;;7.40;99.90;;;;;;5117095;28;19974;-69
2022/03/29 08:04:04;;;;;;;;;;;7.30;99.90;;;;;;5116669;28;19931;-70
2022/03/29 08:06:30;;;;;;;;;;;7.50;99.90;;;;;;5116892;28;20297;-70
2022/03/29 08:08:56;;;;;;;;;;;7.30;99.90;;;;;;5116735;28;19928;-69
2022/03/29 08:11:25;;;;;;;;;;;7.90;99.90;;;;;;5116705;28;19924;-70
2022/03/29 08:13:51;;;;;;;;;;;7.30;99.90;;;;;;5117164;28;19923;-69
2022/03/29 08:16:16;;;;;;;;;;;8.90;99.90;;;;;;5116485;28;19924;-68
2022/03/29 08:18:42;;;;;;;;;;;7.30;99.90;;;;;;5116886;28;19923;-70
2022/03/29 08:23:53;;;;;;;;;;;7.30;99.90;;;;;;5033685;28;20344;-69
2022/03/29 08:26:19;;;;;;;;;;;7.30;99.90;;;;;;5033449;28;19980;-69
2022/03/29 08:28:45;;;;;;;;;;;7.40;99.90;;;;;;5016994;28;20008;-69
2022/03/29 08:31:11;;;;;;;;;;;7.50;99.90;;;;;;5033714;28;19933;-69
2022/03/29 08:33:37;;;;;;;;;;;7.00;99.90;;;;;;5033680;28;19925;-70
2022/03/29 08:36:03;;;;;;;;;;;7.50;99.90;;;;;;5033362;28;19929;-69
2022/03/29 08:38:29;;;;;;;;;;;7.60;99.90;;;;;;5033587;28;19932;-70
2022/03/29 08:40:57;;;;;;;;;;;7.60;99.90;;;;;;5033708;28;19971;-68
2022/03/29 08:43:24;;;;;;;;;;;7.70;99.90;;;;;;5033320;28;19975;-69
2022/03/29 08:45:50;;;;;;;;;;;7.70;99.90;;;;;;5033223;28;19925;-70
2022/03/29 08:48:15;;;;;;;;;;;8.10;99.90;;;;;;5033258;28;20072;-69
2022/03/29 08:50:41;;;;;;;;;;;7.90;99.90;;;;;;5033429;28;20040;-69
2022/03/29 08:53:11;;;;;;;;;;;7.80;99.90;;;;;;5033213;28;19936;-68
2022/03/29 08:55:41;;;;;;;;;;;7.80;99.90;;;;;;5016744;28;19925;-70
2022/03/29 08:58:06;;;;;;;;;;;7.80;99.90;;;;;;5016502;28;20479;-68
2022/03/29 09:00:32;;;;;;;;;;;7.90;99.90;;;;;;5059430;28;19928;-68
2022/03/29 09:02:58;;;;;;;;;;;9.10;99.90;;;;;;5119187;27;19924;-68
2022/03/29 09:05:26;;;;;;;;;;;7.10;99.90;;;;;;5136347;27;19931;-68
2022/03/29 09:07:53;;;;;;;;;;;8.00;99.90;;;;;;5136279;27;19924;-69
2022/03/29 09:10:20;;;;;;;;;;;7.90;99.90;;;;;;5135370;27;19924;-69
2022/03/29 09:12:46;;;;;;;;;;;8.00;99.90;;;;;;5136066;27;19931;-70
2022/03/29 09:15:12;;;;;;;;;;;7.90;99.90;;;;;;5134685;27;20385;-69
2022/03/29 09:17:45;;;;;;;;;;;7.90;99.90;;;;;;5136213;27;20291;-70
2022/03/29 09:20:12;;;;;;;;;;;7.90;99.90;;;;;;5136130;27;19946;-68
2022/03/29 09:22:45;;;;;;;;;;;7.90;99.90;;;;;;5135937;27;19923;-69
2022/03/29 09:25:12;;;;;;;;;;;7.90;99.90;;;;;;5135837;27;20022;-68
2022/03/29 09:27:52;;;;;;;;;;;8.00;99.90;;;;;;5135677;27;19923;-69
2022/03/29 09:30:18;;;;;;;;;;;8.00;99.90;;;;;;5139716;27;19943;-70
2022/03/29 09:32:50;;;;;;;;;;;8.10;99.90;;;;;;5148251;27;20031;-71
2022/03/29 09:35:17;;;;;;;;;;;8.20;99.90;;;;;;5170670;27;19999;-70
2022/03/29 09:37:45;;;;;;;;;;;8.20;99.90;;;;;;5156878;27;20404;-70
2022/03/29 09:40:12;;;;;;;;;;;8.30;99.90;;;;;;5155889;27;19927;-68
2022/03/29 09:42:40;;;;;;;;;;;8.30;99.90;;;;;;5138207;27;19930;-69
2022/03/29 09:45:06;;;;;;;;;;;8.40;99.90;;;;;;5156343;27;19927;-67
2022/03/29 09:47:32;;;;;;;;;;;8.40;99.90;;;;;;5156282;27;19923;-68
2022/03/29 09:49:59;;;;;;;;;;;9.00;99.90;;;;;;5156206;27;19929;-68
2022/03/29 09:52:26;;;;;;;;;;;8.50;99.90;;;;;;5156178;27;20022;-68
2022/03/29 09:55:07;;;;;;;;;;;8.60;99.90;;;;;;5156013;27;20015;-68
2022/03/29 09:57:51;;;;;;;;;;;8.60;99.90;;;;;;5137082;27;19930;-68
2022/03/29 10:00:24;;;;;;;;;;;8.60;99.90;;;;;;5155114;27;20612;-68
2022/03/29 10:02:50;;;;;;;;;;;8.70;99.90;;;;;;5155660;27;19967;-67
2022/03/29 10:05:19;;;;;;;;;;;8.70;99.90;;;;;;5137601;27;19945;-68
2022/03/29 10:09:25;;;;;;;;;;;8.80;99.90;;;;;;5156047;27;19923;-68
2022/03/29 10:10:45;;;;;;;;;;;8.80;99.90;;;;;;5155630;27;20377;-69
2022/03/29 10:13:11;;;;;;;;;;;8.90;99.90;;;;;;5137514;27;19923;-67
2022/03/29 10:15:38;;;;;;;;;;;9.00;99.90;;;;;;5155557;27;20274;-69
2022/03/29 10:18:04;;;;;;;;;;;9.40;99.90;;;;;;5137021;27;19979;-68
2022/03/29 10:20:30;;;;;;;;;;;8.90;99.90;;;;;;5137316;27;19923;-67
2022/03/29 10:22:56;;;;;;;;;;;8.90;99.90;;;;;;5154950;27;19934;-68
2022/03/29 10:25:22;;;;;;;;;;;9.40;99.90;;;;;;5137120;27;19930;-67
2022/03/29 10:27:48;;;;;;;;;;;9.30;99.90;;;;;;5136767;27;19923;-67
2022/03/29 10:30:29;;;;;;;;;;;8.90;99.90;;;;;;5155230;27;19923;-67
2022/03/29 10:33:13;;;;;;;;;;;8.90;99.90;;;;;;5155494;27;19927;-67
2022/03/29 10:35:58;;;;;;;;;;;8.90;99.90;;;;;;5137056;27;19923;-67
2022/03/29 10:38:46;;;;;;;;;;;8.90;99.90;;;;;;5155224;27;19923;-68
2022/03/29 10:41:28;;;;;;;;;;;9.50;99.90;;;;;;5154926;27;19923;-67
2022/03/29 10:44:11;;;;;;;;;;;8.90;99.90;;;;;;5155281;27;19927;-69
2022/03/29 10:46:37;;;;;;;;;;;8.90;99.90;;;;;;5155225;27;20336;-68
2022/03/29 10:49:23;;;;;;;;;;;8.90;99.90;;;;;;5155120;27;19999;-68
2022/03/29 10:51:50;;;;;;;;;;;9.00;99.90;;;;;;5155259;27;19977;-66
2022/03/29 10:54:32;;;;;;;;;;;9.10;99.90;;;;;;5154867;27;20271;-67
2022/03/29 10:56:57;;;;;;;;;;;8.90;99.90;;;;;;5154775;27;19923;-67
2022/03/29 10:59:23;;;;;;;;;;;9.10;99.90;;;;;;5155095;27;19930;-67
2022/03/29 11:02:08;;;;;;;;;;;8.90;99.90;;;;;;5136652;27;19944;-67
2022/03/29 11:04:34;;;;;;;;;;;8.90;99.90;;;;;;5154996;27;19927;-67
2022/03/29 11:07:06;;;;;;;;;;;9.00;99.90;;;;;;5136819;27;19930;-68
2022/03/29 11:09:32;;;;;;;;;;;9.00;99.90;;;;;;5136821;27;20370;-67
2022/03/29 11:11:58;;;;;;;;;;;8.90;99.90;;;;;;5154721;27;19930;-69
2022/03/29 11:14:27;;;;;;;;;;;9.60;99.90;;;;;;5154764;27;19923;-69
2022/03/29 11:16:53;;;;;;;;;;;9.00;99.90;;;;;;5154644;27;20369;-69
2022/03/29 11:19:37;;;;;;;;;;;9.00;99.90;;;;;;5136574;27;19968;-68
2022/03/29 11:22:21;;;;;;;;;;;9.00;99.90;;;;;;5154804;27;20366;-67
2022/03/29 11:24:50;;;;;;;;;;;9.00;99.90;;;;;;5154746;27;20403;-67
2022/03/29 11:27:36;;;;;;;;;;;9.00;99.90;;;;;;5154528;27;19923;-69
2022/03/29 11:30:06;;;;;;;;;;;9.10;99.90;;;;;;5154881;27;19923;-67
2022/03/29 11:32:34;;;;;;;;;;;9.00;99.90;;;;;;5154604;27;20338;-68
2022/03/29 11:34:59;;;;;;;;;;;8.50;99.90;;;;;;5158359;27;20048;-68
2022/03/29 11:37:30;;;;;;;;;;;9.10;99.90;;;;;;5158375;27;20021;-69
2022/03/29 11:39:56;;;;;;;;;;;9.10;99.90;;;;;;5158412;27;19927;-68
2022/03/29 11:42:22;;;;;;;;;;;9.10;99.90;;;;;;5139969;27;20388;-68
2022/03/29 11:44:48;;;;;;;;;;;9.10;99.90;;;;;;5140154;27;19923;-68
2022/03/29 11:47:13;;;;;;;;;;;9.10;99.90;;;;;;5158652;27;19923;-68
2022/03/29 11:49:40;;;;;;;;;;;9.10;99.90;;;;;;5140065;27;19930;-67
2022/03/29 11:52:11;;;;;;;;;;;9.10;99.90;;;;;;5139917;27;20313;-68
2022/03/29 11:54:44;;;;;;;;;;;9.10;99.90;;;;;;5158344;27;19923;-68
2022/03/29 11:57:18;;;;;;;;;;;9.10;99.90;;;;;;5158233;27;20021;-68
2022/03/29 11:59:43;;;;;;;;;;;9.10;99.90;;;;;;5153127;27;19923;-68
2022/03/29 12:02:09;;;;;;;;;;;9.10;99.90;;;;;;5134024;27;19976;-67
2022/03/29 12:04:36;;;;;;;;;;;9.20;99.90;;;;;;5118843;27;19924;-69
2022/03/29 12:07:02;;;;;;;;;;;9.20;99.90;;;;;;5147376;27;19930;-67
2022/03/29 12:09:27;;;;;;;;;;;9.20;99.90;;;;;;5145816;27;19923;-68
2022/03/29 12:11:56;;;;;;;;;;;9.30;99.90;;;;;;5139330;27;20298;-69
2022/03/29 12:14:23;;;;;;;;;;;9.20;99.90;;;;;;5119793;27;20405;-70
2022/03/29 12:16:48;;;;;;;;;;;9.90;99.90;;;;;;5152577;27;19924;-68
2022/03/29 12:19:18;;;;;;;;;;;9.60;99.90;;;;;;5151324;27;20391;-69
2022/03/29 12:21:45;;;;;;;;;;;9.20;99.90;;;;;;5136562;27;19923;-68
2022/03/29 12:24:12;;;;;;;;;;;9.20;99.90;;;;;;5136839;27;19924;-68
2022/03/29 12:26:40;;;;;;;;;;;9.30;99.90;;;;;;5137064;27;19927;-68
2022/03/29 12:29:07;;;;;;;;;;;9.30;99.90;;;;;;5137004;27;19927;-69
2022/03/29 12:31:34;;;;;;;;;;;9.90;99.90;;;;;;5137004;27;19923;-68
2022/03/29 12:34:00;;;;;;;;;;;9.40;99.90;;;;;;5136795;27;19930;-68
2022/03/29 12:36:26;;;;;;;;;;;9.40;99.90;;;;;;5136657;27;19927;-69
2022/03/29 12:38:54;;;;;;;;;;;9.80;99.90;;;;;;5136916;27;19927;-68
2022/03/29 12:41:38;;;;;;;;;;;9.70;99.90;;;;;;5136810;27;19930;-69
2022/03/29 12:44:08;;;;;;;;;;;9.50;99.90;;;;;;5136196;27;20014;-70
2022/03/29 12:46:34;;;;;;;;;;;9.60;99.90;;;;;;5135784;27;19930;-70
2022/03/29 12:49:00;;;;;;;;;;;9.60;99.90;;;;;;5136387;27;20409;-71
2022/03/29 12:51:28;;;;;;;;;;;9.60;99.90;;;;;;5136595;27;20427;-69
2022/03/29 12:53:57;;;;;;;;;;;10.10;99.90;;;;;;5136606;27;19924;-69
2022/03/29 12:56:27;;;;;;;;;;;9.70;99.90;;;;;;5136246;27;19969;-70
2022/03/29 12:58:52;;;;;;;;;;;9.70;99.90;;;;;;5136448;27;19930;-69
2022/03/29 13:01:24;;;;;;;;;;;9.70;99.90;;;;;;5118290;27;19923;-69
2022/03/29 13:03:50;;;;;;;;;;;9.70;99.90;;;;;;5136306;27;19970;-70
2022/03/29 13:06:15;;;;;;;;;;;9.60;99.90;;;;;;5136378;27;19970;-69
2022/03/29 13:08:41;;;;;;;;;;;9.60;99.90;;;;;;5118354;27;19931;-69
2022/03/29 13:11:17;;;;;;;;;;;9.70;99.90;;;;;;5136378;27;20390;-70
2022/03/29 13:13:42;;;;;;;;;;;9.80;99.90;;;;;;5117842;27;19927;-69
2022/03/29 13:16:18;;;;;;;;;;;9.80;99.90;;;;;;5135875;27;19927;-69
2022/03/29 13:18:50;;;;;;;;;;;10.30;99.90;;;;;;5136200;27;19927;-69
2022/03/29 13:21:30;;;;;;;;;;;9.90;99.90;;;;;;5117745;27;19930;-69
2022/03/29 13:24:05;;;;;;;;;;;9.90;99.90;;;;;;5135938;27;20014;-70
2022/03/29 13:26:32;;;;;;;;;;;9.90;99.90;;;;;;5135807;27;19923;-69
2022/03/29 13:28:58;;;;;;;;;;;9.90;99.90;;;;;;5135586;27;19977;-71
2022/03/29 13:31:24;;;;;;;;;;;10.40;99.90;;;;;;5135913;27;19974;-69
2022/03/29 13:33:51;;;;;;;;;;;9.80;99.90;;;;;;5117885;27;19923;-69
2022/03/29 13:36:19;;;;;;;;;;;9.80;99.90;;;;;;5135660;27;19924;-69
2022/03/29 13:38:46;;;;;;;;;;;9.70;99.90;;;;;;5116806;27;19923;-69
2022/03/29 13:41:12;;;;;;;;;;;9.60;99.90;;;;;;5135676;27;19978;-70
2022/03/29 13:43:38;;;;;;;;;;;9.60;99.90;;;;;;5135316;27;19931;-68
2022/03/29 13:46:04;;;;;;;;;;;9.60;99.90;;;;;;5117842;27;19923;-68
2022/03/29 13:48:31;;;;;;;;;;;9.60;99.90;;;;;;5100381;27;19923;-71
2022/03/29 13:50:57;;;;;;;;;;;9.60;99.90;;;;;;5135367;27;19944;-70
2022/03/29 13:53:23;;;;;;;;;;;9.60;99.90;;;;;;5135497;27;19934;-69
2022/03/29 13:55:48;;;;;;;;;;;10.30;99.90;;;;;;5134803;27;20006;-69
2022/03/29 13:58:14;;;;;;;;;;;10.90;99.90;;;;;;5135044;27;19925;-68
2022/03/29 14:00:40;;;;;;;;;;;9.70;99.90;;;;;;5116895;27;19930;-68
2022/03/29 14:03:08;;;;;;;;;;;9.80;99.90;;;;;;5122390;27;19927;-69
2022/03/29 14:05:43;;;;;;;;;;;9.70;99.90;;;;;;5156006;27;19923;-69
2022/03/29 14:08:10;;;;;;;;;;;9.70;99.90;;;;;;5155899;27;20285;-69
2022/03/29 14:10:36;;;;;;;;;;;9.70;99.90;;;;;;5155878;27;20404;-68
2022/03/29 14:13:03;;;;;;;;;;;9.70;99.90;;;;;;5155519;27;20362;-69
2022/03/29 14:15:29;;;;;;;;;;;10.10;99.90;;;;;;5155626;27;20289;-69
2022/03/29 14:17:55;;;;;;;;;;;9.70;99.90;;;;;;5172039;27;20095;-70
2022/03/29 14:20:21;;;;;;;;;;;9.70;99.90;;;;;;5155777;27;20283;-69
2022/03/29 14:22:47;;;;;;;;;;;10.10;99.90;;;;;;5155613;27;19923;-69
2022/03/29 14:25:13;;;;;;;;;;;9.60;99.90;;;;;;5155591;27;19929;-68
2022/03/29 14:27:39;;;;;;;;;;;10.30;99.90;;;;;;5155361;27;19923;-69
2022/03/29 14:30:06;;;;;;;;;;;9.60;99.90;;;;;;5155607;27;19930;-70
2022/03/29 14:32:32;;;;;;;;;;;9.60;99.90;;;;;;5155656;27;19930;-70
2022/03/29 14:35:01;;;;;;;;;;;9.60;99.90;;;;;;5155480;27;19968;-69
2022/03/29 14:37:27;;;;;;;;;;;9.60;99.90;;;;;;5155255;27;19946;-69
2022/03/29 14:39:52;;;;;;;;;;;10.60;99.90;;;;;;5155449;27;20298;-70